Time;durP1;ratioP1;P1;durP2;ratioP2;P2;SDS_P1;SDS_P2;PMS_P1;PMS_P2;Temp;Humidity;BMP_temperature;BMP_pressure;BME280_temperature;BME280_humidity;BME280_pressure;Samples;Min_cycle;Max_cycle;Signal;HPM_P1;HPM_P2
2021/10/10 00:01:59;;;;;;;53.15;34.78;;;;;;;9.27;84.90;102808.03;5033183;28;20045;-50
2021/10/10 00:04:25;;;;;;;59.20;36.47;;;;;;;9.25;84.97;102800.13;5032112;28;20423;-47
2021/10/10 00:06:50;;;;;;;54.08;35.72;;;;;;;9.20;84.96;102800.47;5032527;28;20029;-47
2021/10/10 00:09:16;;;;;;;56.45;34.55;;;;;;;9.18;84.86;102802.44;5033132;28;20030;-48
2021/10/10 00:11:41;;;;;;;55.83;34.88;;;;;;;9.17;84.90;102794.53;5033106;28;20465;-47
2021/10/10 00:14:06;;;;;;;58.42;35.70;;;;;;;9.14;84.62;102800.16;5032905;28;20095;-47
2021/10/10 00:16:32;;;;;;;58.85;35.10;;;;;;;9.11;85.18;102800.38;5032999;28;20029;-48
2021/10/10 00:18:57;;;;;;;62.38;37.38;;;;;;;9.07;85.37;102791.72;5032953;28;20033;-48
2021/10/10 00:21:22;;;;;;;63.22;38.25;;;;;;;9.05;85.23;102795.50;5032781;28;20026;-50
2021/10/10 00:23:48;;;;;;;56.00;34.08;;;;;;;9.05;85.36;102796.34;5031276;28;20040;-47
2021/10/10 00:26:13;;;;;;;53.22;35.10;;;;;;;9.02;85.12;102789.38;5032831;28;20025;-49
2021/10/10 00:28:38;;;;;;;56.05;34.90;;;;;;;8.99;85.02;102788.81;5032829;28;20036;-48
2021/10/10 00:31:04;;;;;;;60.13;36.47;;;;;;;8.91;85.06;102789.41;5032815;28;20021;-47
2021/10/10 00:33:29;;;;;;;58.38;35.22;;;;;;;8.86;85.16;102790.75;5032624;28;20030;-51
2021/10/10 00:35:54;;;;;;;55.35;35.08;;;;;;;8.83;85.04;102783.81;5032509;28;20095;-49
2021/10/10 00:38:20;;;;;;;60.50;35.63;;;;;;;8.81;84.95;102784.91;5032649;28;20388;-47
2021/10/10 00:40:46;;;;;;;58.88;35.65;;;;;;;8.79;85.16;102777.84;5032368;28;20113;-49
2021/10/10 00:43:11;;;;;;;54.47;34.33;;;;;;;8.80;85.06;102781.38;5032401;28;20070;-47
2021/10/10 00:45:37;;;;;;;55.55;34.80;;;;;;;8.79;85.33;102782.34;5032398;28;20025;-49
2021/10/10 00:48:03;;;;;;;56.88;35.50;;;;;;;8.78;85.16;102777.94;5032375;28;20035;-50
2021/10/10 00:50:29;;;;;;;58.35;34.58;;;;;;;8.75;85.30;102784.41;5032435;28;20029;-48
2021/10/10 00:52:54;;;;;;;52.95;34.53;;;;;;;8.75;85.41;102780.88;5032315;28;20100;-49
2021/10/10 00:55:21;;;;;;;54.28;34.45;;;;;;;8.70;84.75;102775.88;5031050;28;20039;-48
2021/10/10 00:57:48;;;;;;;55.65;35.28;;;;;;;8.70;85.43;102780.41;5031411;28;20027;-50
2021/10/10 01:00:14;;;;;;;54.33;33.53;;;;;;;8.70;85.33;102775.03;5031371;28;20029;-48
2021/10/10 01:02:41;;;;;;;55.63;35.28;;;;;;;8.69;85.23;102765.25;5032464;28;20307;-49
2021/10/10 01:05:06;;;;;;;55.83;33.72;;;;;;;8.69;85.38;102770.63;5032229;28;20073;-48
2021/10/10 01:07:32;;;;;;;52.42;34.28;;;;;;;8.67;85.24;102767.22;5031921;28;20064;-49
2021/10/10 01:09:59;;;;;;;60.13;35.03;;;;;;;8.67;85.65;102768.06;5031718;28;20031;-51
2021/10/10 01:12:24;;;;;;;54.33;35.55;;;;;;;8.66;85.47;102766.38;5032337;28;20029;-47
2021/10/10 01:14:50;;;;;;;57.25;35.55;;;;;;;8.65;85.39;102764.66;5047190;28;20025;-46
2021/10/10 01:17:15;;;;;;;55.92;34.25;;;;;;;8.64;85.31;102772.84;5032179;28;20025;-47
2021/10/10 01:19:41;;;;;;;56.58;34.10;;;;;;;8.60;85.30;102764.16;5032205;28;20129;-49
2021/10/10 01:22:07;;;;;;;56.17;34.45;;;;;;;8.60;85.76;102771.38;5047585;28;20623;-49
2021/10/10 01:24:32;;;;;;;53.05;34.28;;;;;;;8.61;85.52;102771.25;5031706;28;20164;-50
2021/10/10 01:26:57;;;;;;;52.22;33.17;;;;;;;8.59;85.07;102761.63;5032191;28;20064;-47
2021/10/10 01:29:23;;;;;;;56.90;34.72;;;;;;;8.54;85.42;102767.34;5032113;28;20055;-47
2021/10/10 01:31:48;;;;;;;55.17;34.60;;;;;;;8.51;85.27;102767.59;5032104;28;20025;-50
2021/10/10 01:34:14;;;;;;;52.20;33.92;;;;;;;8.51;85.57;102767.59;5032138;28;20026;-44
2021/10/10 01:36:41;;;;;;;48.90;33.00;;;;;;;8.48;85.35;102763.31;5032089;28;20025;-47
2021/10/10 01:39:06;;;;;;;55.00;33.67;;;;;;;8.47;85.42;102761.59;5031985;28;20057;-47
2021/10/10 01:41:32;;;;;;;54.35;33.47;;;;;;;8.43;85.39;102757.44;5031479;28;20033;-49
2021/10/10 01:43:57;;;;;;;56.55;33.00;;;;;;;8.40;85.62;102756.81;5031419;28;20044;-48
2021/10/10 01:46:22;;;;;;;52.65;33.22;;;;;;;8.38;85.37;102756.09;5032174;28;20053;-48
2021/10/10 01:48:47;;;;;;;51.60;32.10;;;;;;;8.37;85.29;102755.19;5031898;28;20049;-47
2021/10/10 01:51:13;;;;;;;49.40;32.33;;;;;;;8.39;85.46;102752.41;5031753;28;20033;-49
2021/10/10 01:53:40;;;;;;;56.53;34.03;;;;;;;8.37;85.40;102747.16;5031407;28;20029;-47
2021/10/10 01:56:05;;;;;;;54.33;34.75;;;;;;;8.34;85.57;102752.75;5031701;28;20112;-50
2021/10/10 01:58:31;;;;;;;52.92;33.67;;;;;;;8.30;85.24;102745.94;5031785;28;20064;-50
2021/10/10 02:00:57;;;;;;;59.45;34.45;;;;;;;8.28;85.39;102745.22;5031715;28;20022;-48
2021/10/10 02:03:23;;;;;;;54.78;34.13;;;;;;;8.24;84.87;102749.09;5031842;28;20112;-47
2021/10/10 02:05:50;;;;;;;55.50;34.40;;;;;;;8.22;85.65;102746.53;5031762;28;20034;-49
2021/10/10 02:08:15;;;;;;;51.47;33.97;;;;;;;8.20;85.95;102747.63;5031616;28;20036;-47
2021/10/10 02:10:40;;;;;;;53.75;33.70;;;;;;;8.18;85.69;102744.22;5031804;28;20112;-47
2021/10/10 02:13:06;;;;;;;56.70;34.30;;;;;;;8.17;85.93;102743.38;5031427;28;20038;-50
2021/10/10 02:15:31;;;;;;;53.88;33.08;;;;;;;8.17;86.26;102742.53;5031379;28;20486;-49
2021/10/10 02:17:56;;;;;;;49.60;33.28;;;;;;;8.14;86.02;102746.28;5030214;28;20017;-47
2021/10/10 02:20:22;;;;;;;61.88;33.63;;;;;;;8.12;85.69;102743.72;5042479;28;20357;-48
2021/10/10 02:22:47;;;;;;;53.78;33.50;;;;;;;8.11;85.72;102750.06;5032785;28;20052;-47
2021/10/10 02:25:12;;;;;;;57.00;33.30;;;;;;;8.09;85.18;102738.59;5031431;28;20037;-48
2021/10/10 02:27:38;;;;;;;53.78;33.95;;;;;;;8.09;85.73;102746.63;5033423;28;20021;-49
2021/10/10 02:30:04;;;;;;;48.33;32.60;;;;;;;8.06;85.69;102744.19;5035040;28;20029;-47
2021/10/10 02:32:29;;;;;;;52.67;33.33;;;;;;;8.05;85.65;102738.94;5035435;28;20040;-47
2021/10/10 02:34:55;;;;;;;52.70;32.97;;;;;;;8.05;86.20;102733.59;5046149;28;20067;-46
2021/10/10 02:37:21;;;;;;;54.55;33.95;;;;;;;8.04;86.04;102732.72;5035098;28;20025;-47
2021/10/10 02:39:46;;;;;;;57.05;33.65;;;;;;;8.01;85.32;102738.34;5034949;28;20037;-47
2021/10/10 02:42:11;;;;;;;53.08;34.33;;;;;;;8.00;85.92;102733.09;5034978;28;20100;-48
2021/10/10 02:44:37;;;;;;;52.92;33.95;;;;;;;7.98;86.03;102733.22;5034798;28;20095;-48
2021/10/10 02:47:02;;;;;;;51.50;32.60;;;;;;;7.99;86.02;102734.06;5034518;28;20026;-49
2021/10/10 02:49:27;;;;;;;58.67;34.63;;;;;;;7.99;86.09;102739.44;5033602;28;20064;-48
2021/10/10 02:51:53;;;;;;;52.55;33.88;;;;;;;7.97;86.24;102731.50;5034675;28;20449;-46
2021/10/10 02:54:18;;;;;;;53.13;33.85;;;;;;;7.95;86.18;102730.75;5034289;28;20037;-46
2021/10/10 02:56:43;;;;;;;53.08;32.95;;;;;;;7.95;86.39;102730.75;5034087;28;20053;-48
2021/10/10 02:59:09;;;;;;;51.67;32.97;;;;;;;7.95;86.17;102725.38;5049837;28;20025;-46
2021/10/10 03:01:34;;;;;;;56.08;33.92;;;;;;;7.93;86.51;102722.00;5034299;28;20025;-45
2021/10/10 03:04:00;;;;;;;58.17;34.30;;;;;;;7.90;86.36;102725.78;5034373;28;20021;-50
2021/10/10 03:06:25;;;;;;;51.28;33.17;;;;;;;7.93;86.23;102726.50;5034519;28;20033;-48
2021/10/10 03:08:51;;;;;;;54.70;34.15;;;;;;;7.91;86.19;102721.25;5034397;28;20480;-49
2021/10/10 03:11:16;;;;;;;52.40;33.08;;;;;;;7.89;85.68;102717.81;5034213;28;20021;-46
2021/10/10 03:13:41;;;;;;;59.03;34.33;;;;;;;7.87;86.24;102726.00;5034187;28;20029;-49
2021/10/10 03:16:07;;;;;;;52.67;33.78;;;;;;;7.84;85.78;102714.66;5034159;28;20079;-46
2021/10/10 03:18:32;;;;;;;55.17;32.90;;;;;;;7.81;86.32;102715.75;5034353;28;20021;-49
2021/10/10 03:20:57;;;;;;;54.47;33.75;;;;;;;7.82;86.32;102711.22;5033831;28;20526;-48
2021/10/10 03:23:23;;;;;;;53.17;32.92;;;;;;;7.81;86.54;102714.88;5033665;28;20072;-47
2021/10/10 03:25:48;;;;;;;53.42;33.45;;;;;;;7.79;85.98;102711.47;5032823;28;20028;-49
2021/10/10 03:28:14;;;;;;;56.65;32.33;;;;;;;7.76;86.00;102714.38;5034044;28;20029;-46
2021/10/10 03:30:39;;;;;;;52.05;31.63;;;;;;;7.78;86.36;102720.50;5033931;28;20033;-49
2021/10/10 03:33:04;;;;;;;53.42;33.65;;;;;;;7.79;85.92;102716.81;5015118;28;20363;-50
2021/10/10 03:35:30;;;;;;;53.65;33.10;;;;;;;7.76;85.60;102730.47;5014292;28;20492;-49
2021/10/10 03:37:55;;;;;;;53.40;33.40;;;;;;;7.76;86.42;102722.44;5014090;28;20037;-47
2021/10/10 03:40:20;;;;;;;58.58;35.25;;;;;;;7.75;86.19;102710.84;5014062;28;20022;-48
2021/10/10 03:42:46;;;;;;;57.28;33.97;;;;;;;7.77;86.06;102719.63;5024625;28;20196;-50
2021/10/10 03:45:11;;;;;;;50.10;33.13;;;;;;;7.77;85.94;102721.47;5033539;28;20036;-48
2021/10/10 03:47:37;;;;;;;55.10;32.90;;;;;;;7.75;86.29;102707.31;5033534;28;20461;-51
2021/10/10 03:50:04;;;;;;;53.80;34.72;;;;;;;7.73;86.09;102711.94;5033671;28;20029;-47
2021/10/10 03:52:29;;;;;;;52.72;33.45;;;;;;;7.69;85.48;102714.88;5033460;28;20022;-48
2021/10/10 03:55:19;;;;;;;52.47;32.15;;;;;;;7.68;85.61;102713.13;5040989;28;20193;-47
2021/10/10 03:57:45;;;;;;;52.83;31.88;;;;;;;7.67;85.57;102713.28;5034679;28;20116;-47
2021/10/10 04:00:12;;;;;;;61.17;35.35;;;;;;;7.64;85.95;102717.03;5038599;28;20134;-46
2021/10/10 04:02:39;;;;;;;60.65;33.72;;;;;;;7.63;86.31;102714.47;5053487;28;20040;-48
2021/10/10 04:05:08;;;;;;;53.60;33.17;;;;;;;7.62;86.46;102718.97;5053064;28;20471;-47
2021/10/10 04:07:33;;;;;;;61.38;34.05;;;;;;;7.58;86.45;102714.84;5053227;28;20033;-46
2021/10/10 04:09:58;;;;;;;64.90;35.35;;;;;;;7.60;86.82;102712.88;5053280;28;20043;-47
2021/10/10 04:12:24;;;;;;;57.47;34.70;;;;;;;7.60;86.48;102718.22;5047444;28;20084;-49
2021/10/10 04:14:49;;;;;;;54.97;34.63;;;;;;;7.60;86.43;102712.88;5031482;28;20453;-49
2021/10/10 04:17:14;;;;;;;56.30;34.15;;;;;;;7.60;86.80;102718.22;5033086;28;20044;-48
2021/10/10 04:19:40;;;;;;;54.75;33.88;;;;;;;7.60;86.27;102718.22;5032904;28;20519;-47
2021/10/10 04:22:05;;;;;;;54.40;33.13;;;;;;;7.61;86.22;102714.59;5032897;28;20060;-49
2021/10/10 04:24:31;;;;;;;52.88;32.35;;;;;;;7.62;86.47;102710.94;5032277;28;20125;-47
2021/10/10 04:26:56;;;;;;;57.65;34.33;;;;;;;7.62;86.23;102715.44;5032925;28;20029;-49
2021/10/10 04:29:22;;;;;;;55.85;34.40;;;;;;;7.61;86.55;102714.59;5031594;28;20029;-48
2021/10/10 04:31:47;;;;;;;56.80;35.05;;;;;;;7.62;86.63;102708.25;5032764;28;20476;-47
2021/10/10 04:34:13;;;;;;;55.25;32.92;;;;;;;7.63;86.90;102718.00;5032970;28;20038;-50
2021/10/10 04:36:38;;;;;;;56.78;34.47;;;;;;;7.63;86.58;102707.28;5032362;28;20033;-49
2021/10/10 04:39:04;;;;;;;59.88;34.92;;;;;;;7.65;86.61;102709.84;5032552;28;20033;-49
2021/10/10 04:41:29;;;;;;;54.70;34.20;;;;;;;7.65;86.45;102710.69;5032528;28;20022;-47
2021/10/10 04:43:55;;;;;;;56.67;33.15;;;;;;;7.67;86.64;102718.63;5031767;28;20029;-50
2021/10/10 04:46:20;;;;;;;55.30;33.60;;;;;;;7.67;86.61;102703.41;5032024;28;20382;-47
2021/10/10 04:48:45;;;;;;;52.30;32.38;;;;;;;7.68;86.53;102699.75;5032678;28;20035;-50
2021/10/10 04:51:11;;;;;;;49.03;32.10;;;;;;;7.69;86.53;102698.78;5032006;28;20057;-50
2021/10/10 04:53:36;;;;;;;48.00;30.92;;;;;;;7.69;86.20;102693.41;5030820;28;20097;-50
2021/10/10 04:56:01;;;;;;;47.58;30.83;;;;;;;7.68;86.44;102694.38;5032279;28;20017;-49
2021/10/10 04:58:27;;;;;;;48.00;29.65;;;;;;;7.71;86.18;102695.97;5031943;28;20034;-49
2021/10/10 05:00:52;;;;;;;49.83;31.60;;;;;;;7.73;86.90;102696.72;5029760;28;20116;-45
2021/10/10 05:03:19;;;;;;;49.80;31.38;;;;;;;7.74;86.21;102702.91;5028872;28;20168;-46
2021/10/10 05:05:44;;;;;;;49.63;31.50;;;;;;;7.73;86.19;102693.19;5029343;28;20391;-47
2021/10/10 05:08:10;;;;;;;49.25;31.25;;;;;;;7.72;85.89;102694.16;5028025;28;20025;-47
2021/10/10 05:10:36;;;;;;;46.42;28.90;;;;;;;7.74;86.22;102689.53;5029625;28;20040;-48
2021/10/10 05:13:03;;;;;;;49.55;29.70;;;;;;;7.73;85.42;102685.13;5028857;28;20030;-48
2021/10/10 05:15:28;;;;;;;45.97;28.80;;;;;;;7.68;85.56;102678.28;5028474;28;20034;-48
2021/10/10 05:17:53;;;;;;;47.63;29.85;;;;;;;7.66;85.94;102664.19;5029019;28;20431;-48
2021/10/10 05:20:19;;;;;;;48.15;30.88;;;;;;;7.60;86.21;102656.59;5039652;28;20037;-47
2021/10/10 05:22:44;;;;;;;51.85;32.75;;;;;;;7.60;86.89;102658.44;5030747;28;20499;-47
2021/10/10 05:25:09;;;;;;;53.58;31.23;;;;;;;7.61;87.13;102661.00;5042038;28;20090;-50
2021/10/10 05:27:35;;;;;;;52.60;32.95;;;;;;;7.62;87.09;102668.06;5047782;28;20406;-48
2021/10/10 05:30:00;;;;;;;53.88;34.38;;;;;;;7.67;87.63;102665.88;5049135;28;20029;-47
2021/10/10 05:32:25;;;;;;;56.50;33.00;;;;;;;7.71;87.42;102671.84;5048489;28;20112;-46
2021/10/10 05:34:51;;;;;;;59.28;35.90;;;;;;;7.75;87.18;102672.47;5039469;28;20029;-46
2021/10/10 05:37:16;;;;;;;59.35;34.65;;;;;;;7.75;87.49;102673.34;5028742;28;20051;-47
2021/10/10 05:39:42;;;;;;;56.30;33.90;;;;;;;7.76;87.43;102671.50;5028918;28;20029;-46
2021/10/10 05:42:07;;;;;;;48.22;29.90;;;;;;;7.80;86.89;102672.97;5028733;28;20055;-46
2021/10/10 05:44:32;;;;;;;47.42;30.30;;;;;;;7.80;86.93;102681.03;5028506;28;20055;-45
2021/10/10 05:46:57;;;;;;;48.17;30.05;;;;;;;7.77;87.03;102675.91;5030014;28;20074;-46
2021/10/10 05:49:23;;;;;;;52.97;31.63;;;;;;;7.77;86.98;102670.53;5033943;28;20111;-46
2021/10/10 05:51:50;;;;;;;50.35;30.10;;;;;;;7.79;86.77;102679.28;5048749;28;20175;-46
2021/10/10 05:54:16;;;;;;;55.78;31.92;;;;;;;7.76;86.58;102676.88;5041348;28;20052;-48
2021/10/10 05:56:42;;;;;;;50.13;30.13;;;;;;;7.77;86.92;102682.13;5048931;28;20404;-48
2021/10/10 05:59:09;;;;;;;51.83;30.50;;;;;;;7.81;86.90;102680.88;5048816;28;20060;-47
2021/10/10 06:01:35;;;;;;;53.58;30.05;;;;;;;7.81;86.86;102680.88;5049208;28;20877;-47
2021/10/10 06:04:03;;;;;;;51.88;31.88;;;;;;;7.80;86.48;102672.97;5049546;28;20049;-47
2021/10/10 06:06:28;;;;;;;;;;;;;;;7.78;86.39;102672.25;5045474;28;20032;-49
2021/10/10 06:08:53;;;;;;;51.17;30.88;;;;;;;7.75;86.76;102672.47;5052325;28;19913;-47
2021/10/10 06:11:19;;;;;;;50.85;31.38;;;;;;;7.75;86.67;102677.84;5032550;28;20037;-47
2021/10/10 06:13:44;;;;;;;52.53;31.45;;;;;;;7.77;86.41;102682.13;5044690;28;20345;-48
2021/10/10 06:16:10;;;;;;;54.20;30.98;;;;;;;7.81;87.10;102678.22;5051094;28;20533;-49
2021/10/10 06:18:35;;;;;;;54.47;31.83;;;;;;;7.84;86.98;102667.25;5052351;28;20036;-47
2021/10/10 06:21:01;;;;;;;50.53;31.20;;;;;;;7.90;86.66;102679.34;5035968;28;20025;-46
2021/10/10 06:23:26;;;;;;;52.25;31.83;;;;;;;7.94;86.67;102671.91;5032832;28;20037;-48
2021/10/10 06:25:51;;;;;;;56.30;31.73;;;;;;;7.97;86.54;102677.88;5031685;28;20029;-46
2021/10/10 06:28:17;;;;;;;46.70;31.08;;;;;;;8.03;86.47;102674.72;5032229;28;20029;-49
2021/10/10 06:30:42;;;;;;;49.03;29.38;;;;;;;8.09;86.23;102674.25;5036134;28;20040;-49
2021/10/10 06:33:08;;;;;;;49.10;29.85;;;;;;;8.17;85.96;102672.78;5031520;28;20040;-49
2021/10/10 06:35:33;;;;;;;50.13;29.77;;;;;;;8.22;85.76;102663.41;5032628;28;20072;-48
2021/10/10 06:37:59;;;;;;;46.60;30.50;;;;;;;8.23;84.95;102669.59;5037750;28;20547;-47
2021/10/10 06:40:24;;;;;;;45.78;29.80;;;;;;;8.30;85.55;102677.03;5031907;28;20496;-47
2021/10/10 06:42:50;;;;;;;48.53;30.42;;;;;;;8.41;85.49;102680.75;5032172;28;20026;-48
2021/10/10 06:45:15;;;;;;;43.97;28.58;;;;;;;8.49;85.69;102689.88;5019844;28;20091;-46
2021/10/10 06:47:40;;;;;;;48.10;28.70;;;;;;;8.60;85.18;102680.09;5033863;28;20152;-46
2021/10/10 06:50:06;;;;;;;47.35;30.33;;;;;;;8.68;84.61;102688.38;5049253;28;20025;-48
2021/10/10 06:52:31;;;;;;;45.30;28.80;;;;;;;8.76;84.76;102691.31;5034849;28;20117;-48
2021/10/10 06:54:57;;;;;;;48.92;29.13;;;;;;;8.87;84.71;102688.59;5034952;28;20033;-47
2021/10/10 06:57:22;;;;;;;49.35;29.27;;;;;;;8.95;83.86;102691.53;5035068;28;20033;-48
2021/10/10 06:59:47;;;;;;;43.22;27.17;;;;;;;9.09;84.64;102700.28;5034495;28;20025;-46
2021/10/10 07:02:13;;;;;;;42.30;28.42;;;;;;;9.17;83.33;102700.50;5034612;28;20038;-47
2021/10/10 07:04:38;;;;;;;42.45;28.67;;;;;;;9.32;84.05;102704.59;5034630;28;20424;-45
2021/10/10 07:07:03;;;;;;;47.55;28.42;;;;;;;9.44;83.36;102708.94;5037260;28;20052;-47
2021/10/10 07:09:29;;;;;;;44.05;27.70;;;;;;;9.56;83.05;102706.22;5033287;28;20099;-47
2021/10/10 07:11:54;;;;;;;38.72;27.15;;;;;;;9.66;82.38;102707.09;5043953;28;20029;-50
2021/10/10 07:14:19;;;;;;;42.47;27.00;;;;;;;9.68;81.87;102699.78;5045752;28;20087;-48
2021/10/10 07:16:45;;;;;;;38.92;26.10;;;;;;;9.71;82.25;102704.03;5046649;28;20075;-48
2021/10/10 07:19:10;;;;;;;45.60;27.98;;;;;;;9.66;82.35;102709.78;5049784;28;20108;-48
2021/10/10 07:21:42;;;;;;;45.08;29.50;;;;;;;9.72;83.63;102711.97;5034208;28;20030;-49
2021/10/10 07:26:33;;;;;;;46.22;28.63;;;;;;;10.16;83.33;102719.88;5046221;28;20061;-49
2021/10/10 07:31:29;;;;;;;41.90;27.88;;;;;;;10.68;81.57;102716.19;5088895;27;1230371;-47
2021/10/10 07:33:54;;;;;;;42.20;28.75;;;;;;;10.86;80.31;102723.63;5110274;28;20036;-48
2021/10/10 07:36:20;;;;;;;42.58;27.85;;;;;;;11.09;80.23;102729.63;5110187;28;20085;-47
2021/10/10 07:38:45;;;;;;;40.72;28.92;;;;;;;11.13;79.59;102726.50;5109877;28;20107;-46
2021/10/10 07:41:11;;;;;;;42.08;27.98;;;;;;;11.19;79.72;102720.56;5108393;28;20031;-47
2021/10/10 07:43:38;;;;;;;43.22;29.02;;;;;;;11.22;79.47;102727.53;5077547;28;20025;-48
2021/10/10 07:46:08;;;;;;;41.85;28.45;;;;;;;11.15;79.64;102731.75;5051338;28;20024;-47
2021/10/10 07:48:34;;;;;;;46.03;29.80;;;;;;;11.12;80.38;102724.81;5069549;28;20028;-50
2021/10/10 07:50:59;;;;;;;48.63;31.13;;;;;;;11.09;80.18;102733.19;5070213;28;20521;-47
2021/10/10 07:53:24;;;;;;;47.55;30.42;;;;;;;11.03;80.90;102731.00;5108635;28;20024;-47
2021/10/10 07:55:50;;;;;;;48.55;30.50;;;;;;;10.95;80.95;102734.44;5101672;28;20016;-47
2021/10/10 07:58:15;;;;;;;47.33;32.03;;;;;;;10.89;81.44;102734.13;5089334;28;20027;-49
2021/10/10 08:00:40;;;;;;;46.50;31.88;;;;;;;10.84;81.62;102736.38;5089409;28;20020;-48
2021/10/10 08:03:06;;;;;;;51.45;32.17;;;;;;;10.77;81.66;102736.94;5089060;28;20081;-49
2021/10/10 08:05:38;;;;;;;51.00;32.83;;;;;;;10.69;82.54;102744.84;5089395;28;20411;-47
2021/10/10 08:08:04;;;;;;;50.30;31.58;;;;;;;10.69;83.11;102742.16;5071092;28;20052;-46
2021/10/10 08:10:29;;;;;;;49.78;31.95;;;;;;;10.76;82.97;102740.59;5089063;28;20060;-47
2021/10/10 08:12:54;;;;;;;47.50;31.25;;;;;;;10.80;82.59;102734.97;5088870;28;20043;-47
2021/10/10 08:15:20;;;;;;;53.28;31.98;;;;;;;10.77;82.77;102736.94;5088888;28;20024;-47
2021/10/10 08:17:45;;;;;;;56.60;33.50;;;;;;;10.80;83.23;102735.81;5088954;28;20518;-48
2021/10/10 08:20:11;;;;;;;53.50;34.83;;;;;;;10.83;83.60;102740.91;5078850;28;20471;-47
2021/10/10 08:22:37;;;;;;;53.80;33.33;;;;;;;10.83;84.10;102745.44;5080747;28;20039;-47
2021/10/10 08:25:07;;;;;;;51.80;33.83;;;;;;;10.88;84.46;102743.19;5068773;28;20056;-46
2021/10/10 08:27:36;;;;;;;48.40;32.72;;;;;;;11.24;84.17;102738.16;5087560;28;20127;-47
2021/10/10 08:30:07;;;;;;;48.50;29.50;;;;;;;11.69;82.32;102732.19;5088194;28;20471;-46
2021/10/10 08:32:33;;;;;;;46.33;30.90;;;;;;;11.85;80.71;102735.19;5083780;28;20108;-46
2021/10/10 08:34:58;;;;;;;45.45;29.45;;;;;;;11.90;80.21;102746.44;5077175;28;20182;-48
2021/10/10 08:37:23;;;;;;;44.85;30.52;;;;;;;11.98;80.53;102738.47;5103174;28;20099;-49
2021/10/10 08:39:49;;;;;;;46.78;31.20;;;;;;;12.35;80.42;102740.38;5072261;28;20064;-47
2021/10/10 08:42:17;;;;;;;40.65;29.27;;;;;;;12.82;78.75;102743.00;5058263;28;20032;-48
2021/10/10 08:44:47;;;;;;;40.15;28.38;;;;;;;13.18;76.27;102737.66;5054922;28;20059;-48
2021/10/10 08:47:17;;;;;;;44.30;30.35;;;;;;;13.04;76.14;102733.63;5055219;28;20053;-49
2021/10/10 08:49:43;;;;;;;45.40;30.77;;;;;;;12.84;76.50;102738.28;5069776;28;20040;-46
2021/10/10 08:52:11;;;;;;;43.10;30.48;;;;;;;12.64;77.17;102739.41;5074643;28;20094;-47
2021/10/10 08:54:36;;;;;;;48.47;30.90;;;;;;;12.68;78.17;102740.78;5057574;28;20024;-49
2021/10/10 08:57:02;;;;;;;47.33;29.85;;;;;;;12.65;78.16;102730.28;5074367;28;20372;-46
2021/10/10 08:59:30;;;;;;;46.33;30.80;;;;;;;12.81;78.59;102725.06;5074014;28;20060;-48
2021/10/10 09:01:55;;;;;;;;;;;;;;;13.20;77.27;102727.53;5041387;28;20048;-50
2021/10/10 09:04:21;;;;;;;43.28;28.38;;;;;;;13.30;76.72;102731.06;5036642;28;19909;-51
2021/10/10 09:06:46;;;;;;;45.17;29.80;;;;;;;13.45;76.42;102736.78;5065067;28;20107;-48
2021/10/10 09:09:31;;;;;;;44.88;29.98;;;;;;;13.45;76.64;102739.47;5076897;28;20036;-47
2021/10/10 09:12:01;;;;;;;48.08;29.52;;;;;;;13.61;76.59;102739.66;5074776;28;20028;-49
2021/10/10 09:14:29;;;;;;;45.58;30.30;;;;;;;13.88;76.02;102747.81;5074326;28;20032;-50
2021/10/10 09:17:20;;;;;;;49.72;31.80;;;;;;;13.94;76.43;102750.72;5073618;28;20456;-48
2021/10/10 09:19:49;;;;;;;45.20;29.30;;;;;;;14.10;76.67;102755.41;5073541;28;20028;-47
2021/10/10 09:22:15;;;;;;;47.65;32.25;;;;;;;14.43;76.03;102758.34;5074342;28;20039;-46
2021/10/10 09:24:40;;;;;;;41.97;30.58;;;;;;;14.86;75.18;102764.69;5056435;28;20024;-49
2021/10/10 09:27:10;;;;;;;40.60;29.48;;;;;;;15.18;73.97;102758.50;5074266;28;20521;-49
2021/10/10 09:29:39;;;;;;;56.58;34.28;;;;;;;15.11;73.82;102755.63;5055937;28;20024;-49
2021/10/10 09:32:20;;;;;;;52.15;34.90;;;;;;;15.18;73.80;102754.94;5074191;28;20075;-48
2021/10/10 09:34:47;;;;;;;52.78;34.58;;;;;;;14.96;73.83;102765.41;5074289;28;20078;-50
2021/10/10 09:39:53;;;;;;;47.70;32.83;;;;;;;15.10;73.95;102767.47;5074136;28;20113;-49
2021/10/10 09:42:37;;;;;;;59.72;36.72;;;;;;;14.76;74.71;102766.66;5072581;28;20108;-49
2021/10/10 09:45:16;;;;;;;57.40;38.55;;;;;;;14.85;74.95;102765.66;5062502;28;20025;-47
2021/10/10 09:47:55;;;;;;;60.53;38.40;;;;;;;14.88;74.99;102768.06;5054338;28;20036;-48
2021/10/10 09:50:21;;;;;;;61.38;39.03;;;;;;;15.02;75.15;102772.88;5053746;28;20444;-46
2021/10/10 09:52:46;;;;;;;62.75;38.85;;;;;;;15.08;74.69;102763.22;5053166;28;20061;-46
2021/10/10 09:55:12;;;;;;;59.38;40.05;;;;;;;15.03;73.85;102761.00;5053118;28;20039;-47
2021/10/10 09:57:46;;;;;;;55.55;38.55;;;;;;;15.23;74.67;102763.44;5056344;28;20051;-46
2021/10/10 10:00:26;;;;;;;56.63;38.67;;;;;;;15.45;74.11;102762.78;5064228;28;20024;-45
2021/10/10 10:03:02;;;;;;;60.20;38.83;;;;;;;15.61;73.80;102755.69;5087086;28;20039;-47
2021/10/10 10:05:28;;;;;;;54.78;37.15;;;;;;;15.82;71.71;102766.06;5078202;28;20501;-50
2021/10/10 10:07:55;;;;;;;55.30;36.15;;;;;;;16.17;71.40;102765.72;5093618;28;20123;-47
2021/10/10 10:10:21;;;;;;;60.00;39.25;;;;;;;16.20;71.49;102757.22;5061176;28;20033;-49
2021/10/10 10:12:48;;;;;;;58.80;40.13;;;;;;;16.25;72.12;102764.88;5063946;28;20021;-47
2021/10/10 10:15:14;;;;;;;47.60;35.30;;;;;;;16.72;68.35;102765.91;5053429;28;20025;-46
2021/10/10 10:17:39;;;;;;;44.22;30.90;;;;;;;16.73;66.08;102765.75;5067273;28;20082;-46
2021/10/10 10:20:05;;;;;;;44.05;32.10;;;;;;;16.60;66.67;102758.13;5073213;28;20421;-47
2021/10/10 10:22:34;;;;;;;51.90;33.42;;;;;;;16.78;67.26;102760.66;5072932;28;20487;-47
2021/10/10 10:24:59;;;;;;;44.22;31.02;;;;;;;16.80;65.40;102758.63;5072389;28;20345;-47
2021/10/10 10:27:24;;;;;;;38.67;29.13;;;;;;;16.86;65.41;102765.22;5071840;28;20089;-47
2021/10/10 10:29:52;;;;;;;37.28;29.77;;;;;;;16.81;65.91;102768.44;5092848;28;20390;-47
2021/10/10 10:32:18;;;;;;;33.40;22.67;;;;;;;16.93;63.09;102768.06;5072677;28;20111;-47
2021/10/10 10:35:03;;;;;;;34.10;24.50;;;;;;;16.85;62.89;102758.94;5054617;28;20484;-46
2021/10/10 10:37:44;;;;;;;37.22;27.05;;;;;;;16.64;63.94;102764.06;5065113;28;20029;-50
2021/10/10 10:40:15;;;;;;;38.63;27.13;;;;;;;16.42;65.79;102752.91;5066096;28;20476;-48
2021/10/10 10:42:42;;;;;;;28.60;22.13;;;;;;;16.20;63.85;102751.78;5085974;28;20042;-47
2021/10/10 10:45:30;;;;;;;23.45;19.17;;;;;;;16.11;63.63;102754.69;5092900;28;20024;-48
2021/10/10 10:47:57;;;;;;;20.20;15.85;;;;;;;16.38;62.18;102754.31;5092837;28;20074;-47
2021/10/10 10:50:25;;;;;;;20.10;16.85;;;;;;;16.48;62.52;102758.69;5090451;28;20178;-50
2021/10/10 10:53:00;;;;;;;20.83;15.85;;;;;;;16.81;61.31;102752.13;5072412;28;20020;-47
2021/10/10 10:55:28;;;;;;;20.60;15.68;;;;;;;17.00;60.80;102747.28;5072586;28;20071;-49
2021/10/10 10:58:01;;;;;;;19.25;13.20;;;;;;;17.00;58.81;102747.28;5083126;28;20040;-48
2021/10/10 11:00:45;;;;;;;15.32;12.35;;;;;;;16.92;58.40;102752.78;5057308;28;20029;-47
2021/10/10 11:03:20;;;;;;;16.77;13.63;;;;;;;16.78;59.37;102744.34;5053643;28;20530;-47
2021/10/10 11:06:07;;;;;;;15.35;12.90;;;;;;;16.62;59.82;102744.38;5066460;28;20056;-50
2021/10/10 11:08:35;;;;;;;14.23;12.75;;;;;;;16.68;59.88;102747.22;5072365;28;20025;-47
2021/10/10 11:11:03;;;;;;;14.27;12.77;;;;;;;16.89;59.52;102738.50;5054308;28;20454;-47
2021/10/10 11:13:31;;;;;;;15.07;11.70;;;;;;;17.19;59.05;102748.72;5070826;28;20028;-47
2021/10/10 11:16:03;;;;;;;15.35;13.07;;;;;;;17.22;59.95;102745.63;5072440;28;20479;-49
2021/10/10 11:18:29;;;;;;;15.60;13.07;;;;;;;17.29;58.78;102750.16;5069726;28;20033;-47
2021/10/10 11:20:59;;;;;;;16.48;13.80;;;;;;;17.39;59.03;102743.66;5064442;28;20094;-46